Time;durP1;ratioP1;P1;durP2;ratioP2;P2;SDS_P1;SDS_P2;PMS_P1;PMS_P2;Temp;Humidity;BMP_temperature;BMP_pressure;BME280_temperature;BME280_humidity;BME280_pressure;Samples;Min_cycle;Max_cycle;Signal;HPM_P1;HPM_P2
2023/03/27 00:02:05;;;;;;;10.45;4.75;;;;;7.80;97736.00;;;;5013567;28;20050;-58
2023/03/27 00:04:31;;;;;;;17.35;5.63;;;;;7.70;97736.00;;;;5013558;28;20565;-61
2023/03/27 00:06:58;;;;;;;15.32;4.90;;;;;7.60;97749.00;;;;5013806;28;20517;-58
2023/03/27 00:09:25;;;;;;;13.13;4.65;;;;;7.60;97767.00;;;;5012932;28;20045;-57
2023/03/27 00:11:55;;;;;;;12.23;5.10;;;;;7.60;97757.00;;;;5013919;28;20128;-57
2023/03/27 00:14:22;;;;;;;16.60;4.75;;;;;7.70;97769.00;;;;5013741;28;20069;-56
2023/03/27 00:16:49;;;;;;;9.85;4.28;;;;;7.80;97775.00;;;;5012271;28;20513;-57
2023/03/27 00:19:17;;;;;;;12.50;4.80;;;;;7.80;97788.00;;;;5012836;28;20046;-58
2023/03/27 00:21:44;;;;;;;13.15;5.13;;;;;7.70;97792.00;;;;5012443;28;20045;-58
2023/03/27 00:24:11;;;;;;;16.65;4.18;;;;;7.80;97797.00;;;;5013538;28;20454;-58
2023/03/27 00:26:39;;;;;;;8.50;4.13;;;;;7.70;97799.00;;;;5014514;28;20052;-59
2023/03/27 00:29:06;;;;;;;10.35;5.22;;;;;7.70;97805.00;;;;5013516;28;20462;-60
2023/03/27 00:31:34;;;;;;;9.10;4.72;;;;;7.70;97806.00;;;;5014239;28;20057;-58
2023/03/27 00:34:02;;;;;;;11.35;4.22;;;;;7.60;97809.00;;;;5015637;28;20050;-59
2023/03/27 00:36:29;;;;;;;13.77;5.15;;;;;7.50;97806.00;;;;5015547;28;20049;-60
2023/03/27 00:38:55;;;;;;;13.82;5.22;;;;;7.60;97827.00;;;;5014409;28;20081;-59
2023/03/27 00:41:22;;;;;;;8.70;4.57;;;;;7.60;97823.00;;;;5014485;28;20042;-59
2023/03/27 00:43:52;;;;;;;8.80;3.70;;;;;7.70;97827.00;;;;5014229;28;20065;-60
2023/03/27 00:46:43;;;;;;;12.70;4.93;;;;;7.70;97834.00;;;;5014205;28;20049;-57
2023/03/27 00:49:12;;;;;;;9.15;3.92;;;;;7.80;97844.00;;;;5013365;28;20046;-58
2023/03/27 00:51:42;;;;;;;7.93;3.85;;;;;7.80;97849.00;;;;5013588;28;20046;-56
2023/03/27 00:54:09;;;;;;;14.75;4.90;;;;;7.80;97853.00;;;;5013621;28;20657;-58
2023/03/27 00:56:37;;;;;;;10.00;4.03;;;;;7.80;97857.00;;;;5014235;28;20045;-59
2023/03/27 00:59:11;;;;;;;8.35;3.90;;;;;7.70;97854.00;;;;5014090;28;20458;-57
2023/03/27 01:01:38;;;;;;;11.63;3.65;;;;;7.60;97864.00;;;;5014571;28;20053;-59
2023/03/27 01:04:07;;;;;;;8.63;3.72;;;;;7.50;97856.00;;;;5013246;28;20081;-58
2023/03/27 01:06:34;;;;;;;7.35;3.30;;;;;7.50;97861.00;;;;4996763;28;20057;-59
2023/03/27 01:09:03;;;;;;;6.10;3.35;;;;;7.40;97863.00;;;;5013778;28;20495;-61
2023/03/27 01:11:45;;;;;;;5.00;3.30;;;;;7.40;97875.00;;;;5014928;28;20044;-59
2023/03/27 01:14:33;;;;;;;9.00;3.05;;;;;7.40;97881.00;;;;5014439;28;20057;-58
2023/03/27 01:17:25;;;;;;;7.35;3.78;;;;;7.30;97879.00;;;;5011575;28;20056;-58
2023/03/27 01:20:13;;;;;;;6.03;3.05;;;;;7.30;97885.00;;;;5012117;28;20449;-59
2023/03/27 01:23:07;;;;;;;9.18;3.78;;;;;7.30;97888.00;;;;5011166;28;20077;-61
2023/03/27 01:26:14;;;;;;;7.20;3.80;;;;;7.20;97897.00;;;;5011299;28;20046;-61
2023/03/27 01:29:02;;;;;;;8.68;3.45;;;;;7.20;97902.00;;;;5012041;28;20076;-58
2023/03/27 01:31:50;;;;;;;9.80;3.65;;;;;7.10;97906.00;;;;5027817;28;20146;-58
2023/03/27 01:34:45;;;;;;;6.28;3.13;;;;;7.00;97912.00;;;;5011109;28;20092;-58
2023/03/27 01:37:12;;;;;;;6.88;3.38;;;;;7.00;97916.00;;;;5012907;28;20053;-62
2023/03/27 01:40:03;;;;;;;7.68;2.92;;;;;7.00;97922.00;;;;5015996;28;20053;-58
2023/03/27 01:42:42;;;;;;;10.35;3.50;;;;;7.00;97926.00;;;;5018198;28;20508;-59
2023/03/27 01:45:21;;;;;;;11.18;3.13;;;;;6.90;97932.00;;;;5019696;28;20053;-58
2023/03/27 01:48:11;;;;;;;6.72;3.25;;;;;6.90;97930.00;;;;5018206;28;20049;-62
2023/03/27 01:50:46;;;;;;;4.22;2.47;;;;;6.80;97956.00;;;;5015628;28;20507;-60
2023/03/27 01:53:16;;;;;;;11.35;2.70;;;;;6.70;97936.00;;;;5017435;28;20037;-63
2023/03/27 01:55:53;;;;;;;12.70;3.03;;;;;6.70;97944.00;;;;5015311;28;20073;-59
2023/03/27 01:58:26;;;;;;;11.38;2.80;;;;;6.60;97961.00;;;;5015661;28;20077;-57
2023/03/27 02:00:57;;;;;;;10.45;3.10;;;;;6.60;97955.00;;;;5015075;28;20053;-58
2023/03/27 02:03:44;;;;;;;12.18;4.05;;;;;6.60;97967.00;;;;5014916;28;20140;-62
2023/03/27 02:06:16;;;;;;;10.20;2.95;;;;;6.50;97975.00;;;;5016049;28;20042;-56
2023/03/27 02:09:03;;;;;;;17.42;3.65;;;;;6.50;97984.00;;;;5014189;28;20489;-59
2023/03/27 02:11:43;;;;;;;10.27;2.72;;;;;6.50;97990.00;;;;5014848;28;20073;-61
2023/03/27 02:14:18;;;;;;;7.95;2.63;;;;;6.50;97991.00;;;;5015357;28;20069;-60
2023/03/27 02:16:51;;;;;;;8.52;2.60;;;;;6.40;97998.00;;;;5014511;28;20053;-61
2023/03/27 02:19:41;;;;;;;10.13;2.72;;;;;6.50;98008.00;;;;5014055;28;20042;-60
2023/03/27 02:22:08;;;;;;;8.25;2.20;;;;;6.40;98009.00;;;;5014284;28;20042;-62
2023/03/27 02:24:45;;;;;;;7.68;2.70;;;;;6.30;98011.00;;;;5014580;28;20132;-59
2023/03/27 02:27:21;;;;;;;9.93;2.47;;;;;6.30;98014.00;;;;5014307;28;20077;-60
2023/03/27 02:29:50;;;;;;;8.65;2.63;;;;;6.30;98030.00;;;;5014975;28;20049;-61
2023/03/27 02:32:54;;;;;;;8.15;2.40;;;;;6.40;98028.00;;;;5014362;28;20543;-60
2023/03/27 02:35:31;;;;;;;10.82;3.53;;;;;6.20;98039.00;;;;5014306;28;20099;-60
2023/03/27 02:38:13;;;;;;;7.80;2.35;;;;;6.10;98046.00;;;;5014156;28;20046;-60
2023/03/27 02:41:13;;;;;;;8.15;2.00;;;;;6.00;98048.00;;;;5013694;28;20053;-61
2023/03/27 02:44:18;;;;;;;7.40;1.85;;;;;5.90;98070.00;;;;5015254;28;20048;-60
2023/03/27 02:47:06;;;;;;;4.88;1.75;;;;;5.60;98066.00;;;;5007962;28;20092;-59
2023/03/27 02:49:45;;;;;;;5.63;1.80;;;;;5.40;98069.00;;;;5012370;28;20037;-59
2023/03/27 02:52:18;;;;;;;8.93;2.08;;;;;5.30;98082.00;;;;5013860;28;20129;-57
2023/03/27 02:54:58;;;;;;;6.28;1.75;;;;;5.10;98104.00;;;;5015349;28;20234;-62
2023/03/27 02:57:26;;;;;;;5.63;1.70;;;;;5.00;98098.00;;;;5014331;28;20104;-61
2023/03/27 03:00:19;;;;;;;8.23;1.92;;;;;5.00;98119.00;;;;5003341;28;20077;-63
2023/03/27 03:03:09;;;;;;;11.65;2.88;;;;;4.80;98117.00;;;;5014177;28;20133;-63
2023/03/27 03:05:36;;;;;;;9.82;2.17;;;;;4.70;98134.00;;;;5030635;28;20061;-62
2023/03/27 03:08:04;;;;;;;12.65;1.80;;;;;4.60;98117.00;;;;5015088;28;20046;-61
2023/03/27 03:10:32;;;;;;;9.50;2.40;;;;;4.50;98128.00;;;;5013729;28;20053;-62
2023/03/27 03:12:58;;;;;;;7.93;2.00;;;;;4.40;98139.00;;;;5015675;28;20037;-61
2023/03/27 03:15:25;;;;;;;8.52;2.10;;;;;4.30;98132.00;;;;5014166;28;20197;-63
2023/03/27 03:17:52;;;;;;;6.70;1.75;;;;;4.40;98152.00;;;;5030237;28;20048;-63
2023/03/27 03:20:20;;;;;;;7.18;1.63;;;;;4.40;98161.00;;;;5014531;28;20050;-62
2023/03/27 03:22:48;;;;;;;8.95;1.98;;;;;4.30;98161.00;;;;5030309;28;20057;-63
2023/03/27 03:25:16;;;;;;;8.35;1.70;;;;;4.30;98176.00;;;;5029988;28;20132;-63
2023/03/27 03:27:43;;;;;;;7.85;1.90;;;;;4.30;98165.00;;;;5013540;28;20511;-62
2023/03/27 03:30:11;;;;;;;9.82;2.50;;;;;4.30;98166.00;;;;5013203;28;20453;-61
2023/03/27 03:33:16;;;;;;;6.97;2.20;;;;;4.30;98179.00;;;;5006428;28;20048;-61
2023/03/27 03:35:48;;;;;;;7.75;1.60;;;;;4.30;98176.00;;;;5031061;28;20133;-62
2023/03/27 03:38:28;;;;;;;8.15;1.83;;;;;4.30;98190.00;;;;5013849;28;20125;-62
2023/03/27 03:41:05;;;;;;;3.85;1.65;;;;;4.20;98193.00;;;;5014001;28;20056;-61
2023/03/27 03:43:33;;;;;;;5.38;1.58;;;;;4.20;98198.00;;;;5030683;28;20096;-60
2023/03/27 03:46:00;;;;;;;10.10;2.17;;;;;4.20;98209.00;;;;5013928;28;20525;-59
2023/03/27 03:48:27;;;;;;;8.68;1.77;;;;;4.20;98216.00;;;;5012334;28;20112;-60
2023/03/27 03:50:54;;;;;;;7.05;1.75;;;;;4.30;98220.00;;;;5012800;28;20053;-61
2023/03/27 03:53:21;;;;;;;10.15;2.10;;;;;4.10;98238.00;;;;5014262;28;20487;-60
2023/03/27 03:55:51;;;;;;;9.60;1.92;;;;;4.10;98254.00;;;;5029233;28;20116;-60
2023/03/27 03:58:17;;;;;;;6.82;1.67;;;;;4.20;98247.00;;;;5012658;28;20038;-60
2023/03/27 04:00:45;;;;;;;11.05;2.00;;;;;4.20;98247.00;;;;5011838;28;20038;-60
2023/03/27 04:03:33;;;;;;;7.75;1.77;;;;;4.20;98251.00;;;;5012695;28;20060;-59
2023/03/27 04:06:03;;;;;;;8.00;2.03;;;;;4.20;98257.00;;;;5014754;28;20430;-58
2023/03/27 04:08:31;;;;;;;9.10;2.00;;;;;4.20;98267.00;;;;5012416;28;20074;-59
2023/03/27 04:11:01;;;;;;;6.07;1.80;;;;;4.20;98279.00;;;;5013731;28;20057;-59
2023/03/27 04:13:56;;;;;;;6.20;1.80;;;;;4.20;98291.00;;;;4977465;28;20105;-59
2023/03/27 04:16:32;;;;;;;5.32;1.75;;;;;4.20;98294.00;;;;5012362;28;20529;-59
2023/03/27 04:19:06;;;;;;;11.48;2.22;;;;;4.40;98304.00;;;;5011757;28;20042;-59
2023/03/27 04:21:36;;;;;;;12.15;2.65;;;;;4.50;98298.00;;;;5029205;28;20050;-59
2023/03/27 04:24:05;;;;;;;6.97;1.80;;;;;4.50;98315.00;;;;5012180;28;20134;-59
2023/03/27 04:26:42;;;;;;;7.80;2.35;;;;;4.50;98314.00;;;;5013898;28;20033;-59
2023/03/27 04:29:24;;;;;;;7.32;2.50;;;;;4.50;98325.00;;;;5012121;28;20158;-59
2023/03/27 04:31:57;;;;;;;6.53;1.60;;;;;4.50;98334.00;;;;5013541;28;20177;-59
2023/03/27 04:34:39;;;;;;;10.50;2.50;;;;;4.50;98328.00;;;;5013511;28;20064;-60
2023/03/27 04:37:26;;;;;;;9.18;2.05;;;;;4.50;98347.00;;;;5012787;28;20065;-59
2023/03/27 04:40:04;;;;;;;11.60;2.15;;;;;4.40;98350.00;;;;5028235;28;20104;-59
2023/03/27 04:42:31;;;;;;;9.52;1.77;;;;;4.30;98355.00;;;;5013327;28;20045;-59
2023/03/27 04:44:57;;;;;;;8.98;2.30;;;;;4.30;98351.00;;;;5011826;28;20495;-59
2023/03/27 04:47:27;;;;;;;7.85;1.85;;;;;4.40;98368.00;;;;5011849;28;20104;-59
2023/03/27 04:49:59;;;;;;;6.50;1.92;;;;;4.30;98369.00;;;;4995422;28;20061;-59
2023/03/27 04:52:28;;;;;;;8.98;1.92;;;;;4.30;98366.00;;;;5011666;28;20073;-59
2023/03/27 04:54:57;;;;;;;8.93;1.70;;;;;4.20;98388.00;;;;5012301;28;20053;-59
2023/03/27 04:57:27;;;;;;;11.38;3.05;;;;;4.20;98380.00;;;;5012132;28;20045;-59
2023/03/27 04:59:58;;;;;;;9.50;2.33;;;;;4.10;98378.00;;;;5011392;28;20045;-60
2023/03/27 05:02:54;;;;;;;8.32;3.17;;;;;4.00;98384.00;;;;5011797;28;20095;-60
2023/03/27 05:05:33;;;;;;;8.80;2.85;;;;;4.10;98387.00;;;;5028135;28;20506;-60
2023/03/27 05:08:03;;;;;;;14.80;5.82;;;;;4.00;98393.00;;;;5011796;28;20050;-60
2023/03/27 05:10:30;;;;;;;4.15;2.22;;;;;4.00;98395.00;;;;5027518;28;20049;-60
2023/03/27 05:12:58;;;;;;;11.45;2.45;;;;;3.90;98394.00;;;;5011397;28;20418;-61
2023/03/27 05:15:25;;;;;;;16.50;3.67;;;;;3.90;98385.00;;;;5011686;28;20077;-56
2023/03/27 05:17:53;;;;;;;7.93;2.22;;;;;3.90;98401.00;;;;5013806;28;20128;-62
2023/03/27 05:20:24;;;;;;;9.05;2.40;;;;;3.90;98408.00;;;;5012303;28;20046;-63
2023/03/27 05:22:55;;;;;;;12.40;3.08;;;;;3.90;98399.00;;;;5012484;28;20064;-62
2023/03/27 05:25:24;;;;;;;12.27;2.78;;;;;3.80;98399.00;;;;5028999;28;20523;-62
2023/03/27 05:27:53;;;;;;;21.02;3.22;;;;;3.80;98414.00;;;;5013132;28;20096;-62
2023/03/27 05:30:22;;;;;;;13.60;2.80;;;;;3.80;98425.00;;;;4995228;28;20050;-62
2023/03/27 05:32:57;;;;;;;8.32;2.40;;;;;3.90;98432.00;;;;5028828;28;20070;-62
2023/03/27 05:35:27;;;;;;;7.63;2.88;;;;;3.90;98442.00;;;;5012340;28;20068;-61
2023/03/27 05:37:56;;;;;;;9.02;2.53;;;;;3.90;98446.00;;;;5033324;28;20054;-62
2023/03/27 05:40:31;;;;;;;9.77;2.63;;;;;4.00;98455.00;;;;5015497;28;20069;-61
2023/03/27 05:42:57;;;;;;;16.48;3.35;;;;;4.10;98468.00;;;;5013847;28;20041;-62
2023/03/27 05:45:28;;;;;;;9.57;3.40;;;;;4.20;98468.00;;;;5012871;28;20084;-64
2023/03/27 05:47:57;;;;;;;11.77;2.40;;;;;4.30;98473.00;;;;5029320;28;20145;-62
2023/03/27 05:50:27;;;;;;;6.70;2.42;;;;;4.30;98481.00;;;;5011873;28;20146;-62
2023/03/27 05:53:06;;;;;;;16.15;3.35;;;;;4.40;98482.00;;;;5013043;28;20049;-61
2023/03/27 05:55:37;;;;;;;9.88;3.40;;;;;4.40;98486.00;;;;5011284;28;20046;-60
2023/03/27 05:58:06;;;;;;;8.40;3.30;;;;;4.40;98490.00;;;;5011447;28;20474;-60
2023/03/27 06:00:33;;;;;;;9.38;3.25;;;;;4.40;98489.00;;;;5010998;28;20042;-61
2023/03/27 06:03:01;;;;;;;17.65;3.05;;;;;4.50;98492.00;;;;5011266;28;20103;-61
2023/03/27 06:06:11;;;;;;;11.27;2.92;;;;;4.40;98503.00;;;;5005830;28;20173;-61
2023/03/27 06:08:41;;;;;;;9.50;3.33;;;;;4.50;98499.00;;;;5010335;28;20046;-62
2023/03/27 06:11:12;;;;;;;11.85;2.60;;;;;4.50;98511.00;;;;5010960;28;20052;-61
2023/03/27 06:13:48;;;;;;;11.38;2.97;;;;;4.50;98522.00;;;;5011292;28;20160;-61
2023/03/27 06:16:19;;;;;;;17.92;3.85;;;;;4.40;98524.00;;;;4996119;28;20057;-62
2023/03/27 06:19:15;;;;;;;12.55;2.67;;;;;4.40;98534.00;;;;4999233;28;20051;-62
2023/03/27 06:21:47;;;;;;;13.13;3.03;;;;;4.30;98544.00;;;;5011545;28;20061;-61
2023/03/27 06:24:15;;;;;;;12.50;2.58;;;;;4.40;98547.00;;;;5013899;28;20042;-61
2023/03/27 06:26:42;;;;;;;6.72;2.50;;;;;4.40;98551.00;;;;5031089;28;20052;-61
2023/03/27 06:29:09;;;;;;;13.90;3.05;;;;;4.40;98547.00;;;;5014041;28;20464;-63
2023/03/27 06:31:43;;;;;;;10.25;2.50;;;;;4.50;98553.00;;;;5031422;28;20506;-62
2023/03/27 06:34:16;;;;;;;6.65;2.50;;;;;4.60;98558.00;;;;5031893;28;20050;-61
2023/03/27 06:36:55;;;;;;;10.63;2.63;;;;;4.60;98565.00;;;;5016191;28;20054;-62
2023/03/27 06:39:21;;;;;;;4.57;2.28;;;;;4.60;98560.00;;;;5030712;28;20042;-61
2023/03/27 06:41:50;;;;;;;11.63;2.95;;;;;4.60;98574.00;;;;5014484;28;20074;-59
2023/03/27 06:44:45;;;;;;;;;;;;;4.70;98580.00;;;;5014879;28;20052;-59
2023/03/27 06:47:34;;;;;;;10.55;2.70;;;;;4.70;98573.00;;;;5014215;28;20385;-60
2023/03/27 06:50:45;;;;;;;10.77;2.75;;;;;4.70;98584.00;;;;5011731;28;20050;-62
2023/03/27 06:53:16;;;;;;;6.47;2.75;;;;;4.80;98588.00;;;;5014452;28;20053;-60
2023/03/27 06:55:54;;;;;;;9.93;2.83;;;;;4.80;98609.00;;;;5014170;28;20046;-60
2023/03/27 06:58:22;;;;;;;6.75;2.63;;;;;4.70;98603.00;;;;5030443;28;20144;-61
2023/03/27 07:00:49;;;;;;;7.80;2.45;;;;;4.70;98615.00;;;;5013997;28;20061;-60
2023/03/27 07:03:18;;;;;;;10.48;2.58;;;;;4.80;98624.00;;;;5015506;28;20050;-61
2023/03/27 07:06:05;;;;;;;10.13;2.35;;;;;4.90;98619.00;;;;4976836;28;20070;-60
2023/03/27 07:08:58;;;;;;;10.05;2.75;;;;;5.00;98634.00;;;;5015603;28;20505;-60
2023/03/27 07:11:24;;;;;;;8.15;2.75;;;;;5.10;98640.00;;;;5026435;28;20054;-61
2023/03/27 07:13:57;;;;;;;5.57;2.30;;;;;5.10;98646.00;;;;5043117;28;20054;-61
2023/03/27 07:16:26;;;;;;;23.73;3.78;;;;;5.20;98664.00;;;;5026306;28;20096;-61
2023/03/27 07:18:53;;;;;;;10.27;3.15;;;;;5.20;98663.00;;;;5037023;28;20057;-61
2023/03/27 07:21:21;;;;;;;6.40;2.95;;;;;5.30;98668.00;;;;5021878;28;20069;-60
2023/03/27 07:23:48;;;;;;;13.32;2.28;;;;;5.40;98668.00;;;;5022275;28;20050;-61
2023/03/27 07:26:25;;;;;;;9.50;2.80;;;;;5.40;98670.00;;;;5022017;28;20072;-60
2023/03/27 07:28:59;;;;;;;10.00;1.85;;;;;5.40;98671.00;;;;5038915;28;20554;-61
2023/03/27 07:31:26;;;;;;;7.50;2.55;;;;;5.40;98675.00;;;;5022917;28;20076;-60
2023/03/27 07:34:14;;;;;;;7.53;2.28;;;;;5.60;98682.00;;;;5011557;28;20133;-61
2023/03/27 07:37:01;;;;;;;6.85;3.08;;;;;5.90;98691.00;;;;5026495;28;20140;-60
2023/03/27 07:39:28;;;;;;;9.45;2.25;;;;;5.90;98695.00;;;;5020487;28;20490;-58
2023/03/27 07:41:55;;;;;;;11.18;2.60;;;;;5.70;98695.00;;;;5019837;28;20169;-57
2023/03/27 07:44:28;;;;;;;8.18;2.72;;;;;5.70;98699.00;;;;5018782;28;20052;-57
2023/03/27 07:47:00;;;;;;;6.07;2.33;;;;;5.60;98712.00;;;;5034077;28;20078;-58
2023/03/27 07:49:26;;;;;;;8.73;1.85;;;;;5.50;98707.00;;;;5015829;28;20157;-60
2023/03/27 07:52:11;;;;;;;6.13;2.38;;;;;5.40;98716.00;;;;5019862;28;20046;-60
2023/03/27 07:54:48;;;;;;;6.43;1.77;;;;;5.60;98710.00;;;;5019483;28;20060;-61
2023/03/27 07:57:18;;;;;;;8.68;1.90;;;;;5.70;98707.00;;;;5024575;28;20053;-62
2023/03/27 07:59:51;;;;;;;3.28;1.75;;;;;5.80;98713.00;;;;5025101;28;20110;-61
2023/03/27 08:02:42;;;;;;;8.68;2.22;;;;;6.10;98711.00;;;;5022626;28;20077;-61
2023/03/27 08:05:10;;;;;;;3.83;1.77;;;;;6.20;98723.00;;;;5020259;28;20421;-61
2023/03/27 08:07:39;;;;;;;7.80;2.58;;;;;6.40;98716.00;;;;5036597;28;20088;-60
2023/03/27 08:10:07;;;;;;;6.75;1.80;;;;;6.60;98720.00;;;;5020259;28;20103;-60
2023/03/27 08:12:45;;;;;;;7.10;2.40;;;;;6.80;98731.00;;;;5016823;28;20055;-61
2023/03/27 08:15:13;;;;;;;8.43;2.40;;;;;7.00;98733.00;;;;5001632;28;20113;-61
2023/03/27 08:17:39;;;;;;;6.75;1.75;;;;;7.10;98730.00;;;;5016706;28;20045;-60
2023/03/27 08:20:13;;;;;;;6.82;1.77;;;;;7.10;98731.00;;;;5033324;28;20053;-61
2023/03/27 08:22:44;;;;;;;9.48;2.40;;;;;7.10;98737.00;;;;5018862;28;20081;-61
2023/03/27 08:25:34;;;;;;;7.70;2.20;;;;;7.30;98743.00;;;;5020753;28;20133;-60
2023/03/27 08:28:06;;;;;;;7.40;2.65;;;;;7.30;98749.00;;;;5015250;28;20499;-61
2023/03/27 08:30:34;;;;;;;12.00;1.98;;;;;7.20;98758.00;;;;5030161;28;20100;-61
2023/03/27 08:33:01;;;;;;;8.20;2.70;;;;;7.10;98754.00;;;;5014171;28;20050;-60
2023/03/27 08:35:28;;;;;;;7.97;2.38;;;;;7.20;98756.00;;;;5013457;28;20057;-60
2023/03/27 08:37:55;;;;;;;13.00;3.17;;;;;7.30;98746.00;;;;5013585;28;20506;-60
2023/03/27 08:40:37;;;;;;;10.73;4.22;;;;;7.80;98750.00;;;;5012139;28;20048;-60
2023/03/27 08:43:26;;;;;;;5.90;1.75;;;;;8.10;98757.00;;;;5028738;28;20399;-61
2023/03/27 08:46:08;;;;;;;10.98;2.90;;;;;7.90;98768.00;;;;5027991;28;20057;-60
2023/03/27 08:48:43;;;;;;;9.33;2.30;;;;;7.90;98768.00;;;;5011383;28;20507;-59
2023/03/27 08:51:21;;;;;;;3.90;1.65;;;;;7.70;98775.00;;;;5028102;28;20300;-61
2023/03/27 08:53:55;;;;;;;12.68;1.92;;;;;7.70;98773.00;;;;5011746;28;20232;-60
2023/03/27 08:56:26;;;;;;;5.47;1.50;;;;;7.50;98784.00;;;;5011857;28;20042;-60
2023/03/27 08:58:54;;;;;;;9.18;2.25;;;;;7.20;98778.00;;;;5012284;28;20053;-60
2023/03/27 09:01:45;;;;;;;8.32;2.72;;;;;7.40;98776.00;;;;5011312;28;20045;-60
2023/03/27 09:04:26;;;;;;;8.70;2.15;;;;;7.50;98771.00;;;;5011504;28;20073;-60
2023/03/27 09:07:08;;;;;;;8.48;3.70;;;;;7.70;98775.00;;;;5028097;28;20045;-59
2023/03/27 09:10:21;;;;;;;14.00;3.05;;;;;7.90;98784.00;;;;5027317;28;20037;-60
2023/03/27 09:12:55;;;;;;;15.40;2.05;;;;;7.90;98783.00;;;;5014376;28;20046;-61
2023/03/27 09:15:30;;;;;;;8.48;2.00;;;;;8.00;98780.00;;;;5015030;28;20046;-61
2023/03/27 09:18:03;;;;;;;5.78;1.60;;;;;8.10;98788.00;;;;5015501;28;20053;-60
2023/03/27 09:20:39;;;;;;;8.10;1.57;;;;;8.30;98779.00;;;;5013150;28;20046;-61
2023/03/27 09:23:17;;;;;;;4.88;1.73;;;;;8.60;98780.00;;;;5013610;28;20058;-61
2023/03/27 09:26:15;;;;;;;10.20;2.83;;;;;8.70;98783.00;;;;5015294;28;20072;-58
2023/03/27 09:29:21;;;;;;;9.80;3.97;;;;;8.70;98791.00;;;;5001273;28;20053;-57
2023/03/27 09:31:57;;;;;;;4.57;2.30;;;;;8.70;98793.00;;;;5014435;28;20049;-58
2023/03/27 09:34:32;;;;;;;5.82;2.15;;;;;8.50;98806.00;;;;5014526;28;20534;-62
2023/03/27 09:36:59;;;;;;;8.63;2.80;;;;;8.40;98792.00;;;;5015258;28;20060;-60
2023/03/27 09:39:32;;;;;;;9.32;2.67;;;;;8.70;98808.00;;;;5014188;28;20077;-62
2023/03/27 09:42:21;;;;;;;6.45;2.30;;;;;8.70;98812.00;;;;5015849;28;20073;-62
2023/03/27 09:44:54;;;;;;;7.18;2.47;;;;;8.70;98794.00;;;;5016602;28;20467;-59
2023/03/27 09:47:50;;;;;;;5.57;2.22;;;;;9.00;98791.00;;;;5014539;28;20050;-59
2023/03/27 09:50:37;;;;;;;;;;;;;9.10;98782.00;;;;5013814;28;20052;-59
2023/03/27 09:53:22;;;;;;;6.85;1.60;;;;;9.30;98780.00;;;;5015527;28;19964;-59
2023/03/27 09:56:11;;;;;;;7.30;2.07;;;;;9.50;98802.00;;;;5015107;28;20117;-58
2023/03/27 09:58:47;;;;;;;5.07;1.85;;;;;9.50;98803.00;;;;5017018;28;20387;-60
2023/03/27 10:01:18;;;;;;;6.25;1.67;;;;;9.40;98804.00;;;;5018281;28;20041;-59
2023/03/27 10:03:52;;;;;;;5.30;2.10;;;;;9.30;98810.00;;;;5018537;28;20060;-60
2023/03/27 10:06:42;;;;;;;7.63;1.67;;;;;9.30;98808.00;;;;5016698;28;20100;-61
2023/03/27 10:09:39;;;;;;;8.68;2.70;;;;;9.40;98803.00;;;;5034338;28;20046;-61
2023/03/27 10:12:18;;;;;;;9.85;2.55;;;;;9.40;98811.00;;;;5032171;28;20054;-60
2023/03/27 10:14:50;;;;;;;5.30;2.00;;;;;9.40;98811.00;;;;5015504;28;20140;-60
2023/03/27 10:17:38;;;;;;;8.10;2.75;;;;;9.50;98798.00;;;;4999740;28;20073;-60
2023/03/27 10:20:14;;;;;;;5.18;2.08;;;;;9.80;98796.00;;;;5014421;28;20046;-60
2023/03/27 10:22:50;;;;;;;4.78;2.13;;;;;10.00;98810.00;;;;5014657;28;20107;-61
2023/03/27 10:25:37;;;;;;;3.65;1.65;;;;;10.10;98795.00;;;;5014289;28;20077;-59
2023/03/27 10:28:35;;;;;;;4.55;2.20;;;;;10.10;98803.00;;;;4998722;28;20046;-61
2023/03/27 10:31:25;;;;;;;4.07;1.80;;;;;10.10;98792.00;;;;5017366;28;20406;-63
2023/03/27 10:34:00;;;;;;;2.60;1.63;;;;;10.10;98797.00;;;;5016347;28;20045;-63
2023/03/27 10:36:48;;;;;;;3.20;1.80;;;;;10.10;98795.00;;;;5003353;28;20050;-63
2023/03/27 10:39:19;;;;;;;3.40;1.73;;;;;10.10;98808.00;;;;5031779;28;20046;-60
2023/03/27 10:42:08;;;;;;;5.13;2.03;;;;;10.10;98810.00;;;;5014012;28;20569;-60
2023/03/27 10:44:39;;;;;;;5.15;2.00;;;;;9.90;98816.00;;;;5016505;28;20052;-60
2023/03/27 10:47:17;;;;;;;6.38;2.03;;;;;9.60;98813.00;;;;5014119;28;20069;-57
2023/03/27 10:49:50;;;;;;;3.08;2.00;;;;;9.40;98827.00;;;;5014806;28;20041;-57
2023/03/27 10:52:44;;;;;;;3.08;1.48;;;;;9.30;98826.00;;;;5030500;28;20053;-57
2023/03/27 10:55:52;;;;;;;4.35;1.30;;;;;9.00;98847.00;;;;5013967;28;20054;-62
2023/03/27 10:58:25;;;;;;;5.13;1.52;;;;;8.70;98856.00;;;;5013929;28;20054;-56
2023/03/27 11:01:02;;;;;;;6.38;1.45;;;;;8.60;98866.00;;;;4998814;28;20041;-59
2023/03/27 11:03:42;;;;;;;3.13;1.42;;;;;8.20;98866.00;;;;5013905;28;20565;-61
2023/03/27 11:06:15;;;;;;;5.80;1.88;;;;;7.90;98875.00;;;;5015250;28;20406;-60
2023/03/27 11:09:22;;;;;;;2.97;1.30;;;;;7.50;98891.00;;;;5013162;28;20054;-60
2023/03/27 11:12:00;;;;;;;4.68;1.85;;;;;7.20;98890.00;;;;4996623;28;20053;-59
2023/03/27 11:14:46;;;;;;;4.60;1.80;;;;;7.10;98893.00;;;;5013516;28;20050;-57
2023/03/27 11:17:22;;;;;;;3.10;1.70;;;;;7.20;98893.00;;;;5013526;28;20400;-58
2023/03/27 11:20:43;;;;;;;7.28;1.77;;;;;7.60;98907.00;;;;4993879;28;20071;-62
2023/03/27 11:23:35;;;;;;;2.15;1.40;;;;;7.70;98913.00;;;;5014047;28;20538;-57
2023/03/27 11:26:26;;;;;;;3.65;1.50;;;;;7.80;98913.00;;;;5014991;28;20127;-62
2023/03/27 11:29:16;;;;;;;3.35;1.80;;;;;7.90;98895.00;;;;5012791;28;20070;-60
2023/03/27 11:31:50;;;;;;;3.85;1.55;;;;;8.10;98903.00;;;;5013115;28;20052;-61
2023/03/27 11:34:47;;;;;;;2.90;1.48;;;;;8.10;98891.00;;;;5013515;28;20435;-60
2023/03/27 11:37:46;;;;;;;3.53;1.30;;;;;8.20;98904.00;;;;5006391;28;20065;-61
2023/03/27 11:40:21;;;;;;;3.17;1.52;;;;;8.20;98903.00;;;;5012506;28;20073;-60
2023/03/27 11:42:55;;;;;;;3.22;1.20;;;;;8.40;98898.00;;;;5013262;28;20141;-61
2023/03/27 11:45:26;;;;;;;9.70;3.80;;;;;8.50;98901.00;;;;5029652;28;20132;-60
2023/03/27 11:48:07;;;;;;;5.00;1.63;;;;;8.60;98898.00;;;;5013318;28;20190;-61
2023/03/27 11:51:08;;;;;;;5.72;1.75;;;;;8.90;98896.00;;;;5012440;28;20137;-60
2023/03/27 11:53:55;;;;;;;1.33;0.98;;;;;9.10;98904.00;;;;5029683;28;20427;-61
2023/03/27 11:56:37;;;;;;;2.58;1.40;;;;;9.30;98888.00;;;;5012902;28;20566;-58
2023/03/27 11:59:23;;;;;;;1.52;1.27;;;;;9.50;98890.00;;;;5012404;28;20048;-61
2023/03/27 12:02:36;;;;;;;3.55;1.40;;;;;9.50;98887.00;;;;5012925;28;20072;-60
2023/03/27 12:05:21;;;;;;;2.33;1.23;;;;;9.60;98889.00;;;;5012971;28;20046;-60
2023/03/27 12:08:07;;;;;;;1.20;0.90;;;;;9.50;98878.00;;;;5014034;28;20041;-60
2023/03/27 12:10:41;;;;;;;2.25;0.73;;;;;9.70;98897.00;;;;5012255;28;20045;-60
2023/03/27 12:13:34;;;;;;;1.75;0.80;;;;;9.70;98863.00;;;;5013925;28;20446;-60
2023/03/27 12:16:28;;;;;;;1.40;0.90;;;;;10.30;98865.00;;;;5012678;28;20050;-58
2023/03/27 12:19:24;;;;;;;1.15;0.85;;;;;10.60;98871.00;;;;5011913;28;20050;-60
2023/03/27 12:22:37;;;;;;;1.00;0.88;;;;;10.60;98878.00;;;;5011273;28;20061;-59
2023/03/27 12:25:18;;;;;;;2.95;1.00;;;;;10.40;98881.00;;;;4996559;28;20046;-59
2023/03/27 12:28:41;;;;;;;2.15;0.75;;;;;10.10;98882.00;;;;5016700;28;20478;-62
2023/03/27 12:31:47;;;;;;;2.00;1.00;;;;;9.80;98898.00;;;;5012510;28;20057;-62
2023/03/27 12:34:29;;;;;;;0.90;0.85;;;;;9.50;98912.00;;;;5015990;28;20053;-63
2023/03/27 12:36:58;;;;;;;1.48;0.60;;;;;9.20;98900.00;;;;5015653;28;20568;-62
2023/03/27 12:39:26;;;;;;;0.65;0.60;;;;;9.10;98897.00;;;;5030619;28;20057;-62
2023/03/27 12:41:58;;;;;;;1.25;0.77;;;;;8.90;98907.00;;;;5031114;28;20056;-61
2023/03/27 12:45:01;;;;;;;1.27;0.70;;;;;9.30;98903.00;;;;5031649;28;20050;-61
2023/03/27 12:47:28;;;;;;;1.38;0.80;;;;;9.50;98908.00;;;;5014828;28;20168;-63
2023/03/27 12:50:18;;;;;;;3.20;1.48;;;;;9.70;98911.00;;;;5014268;28;20073;-62
2023/03/27 12:52:45;;;;;;;1.75;1.38;;;;;9.90;98905.00;;;;5014810;28;20045;-63
2023/03/27 12:55:16;;;;;;;3.60;1.67;;;;;10.20;98904.00;;;;4998723;28;20044;-63
2023/03/27 12:58:04;;;;;;;3.13;1.70;;;;;10.60;98902.00;;;;5005095;28;20054;-63
2023/03/27 13:00:58;;;;;;;1.52;1.00;;;;;11.00;98906.00;;;;5017728;28;20115;-62
2023/03/27 13:04:27;;;;;;;4.35;1.40;;;;;11.00;98884.00;;;;5015278;28;20128;-62
2023/03/27 13:07:18;;;;;;;1.00;0.70;;;;;11.20;98887.00;;;;5014844;28;20038;-63
2023/03/27 13:10:37;;;;;;;0.65;0.63;;;;;11.40;98895.00;;;;5011036;28;20137;-61
2023/03/27 13:13:20;;;;;;;3.25;0.82;;;;;11.50;98910.00;;;;5015880;28;20042;-62
2023/03/27 13:16:10;;;;;;;3.28;1.27;;;;;11.20;98900.00;;;;5015464;28;20069;-61
2023/03/27 13:19:00;;;;;;;3.70;1.50;;;;;11.20;98904.00;;;;5014903;28;20073;-63